createdAt,value
2022-12-28T00:02:27.779Z,9.73
2022-12-28T00:04:55.328Z,10.37
2022-12-28T00:07:23.675Z,10.03
2022-12-28T00:09:51.291Z,10.87
2022-12-28T00:12:18.819Z,9.93
2022-12-28T00:14:46.405Z,10.50
2022-12-28T00:17:13.968Z,10.33
2022-12-28T00:19:42.871Z,10.20
2022-12-28T00:22:10.401Z,9.83
2022-12-28T00:24:37.932Z,10.47
2022-12-28T00:27:05.495Z,9.43
2022-12-28T00:29:33.035Z,9.57
2022-12-28T00:32:00.588Z,10.30
2022-12-28T00:34:28.280Z,9.63
2022-12-28T00:37:09.427Z,9.40
2022-12-28T00:39:39.978Z,9.93
2022-12-28T00:42:07.520Z,9.13
2022-12-28T00:44:35.023Z,9.60
2022-12-28T00:47:02.755Z,10.13
2022-12-28T00:49:30.242Z,10.20
2022-12-28T00:51:59.165Z,9.43
2022-12-28T00:54:26.974Z,9.70
2022-12-28T00:56:54.539Z,9.33
2022-12-28T00:59:22.233Z,8.70
2022-12-28T01:01:52.985Z,9.13
2022-12-28T01:04:20.685Z,9.13
2022-12-28T01:06:48.207Z,8.27
2022-12-28T01:09:17.071Z,9.03
2022-12-28T01:11:44.713Z,9.43
2022-12-28T01:14:12.335Z,8.40
2022-12-28T01:16:39.933Z,8.83
2022-12-28T01:19:08.341Z,9.77
2022-12-28T01:21:36.459Z,8.70
2022-12-28T01:24:05.242Z,9.20
2022-12-28T01:26:34.505Z,8.23
2022-12-28T01:29:02.048Z,9.53
2022-12-28T01:31:29.603Z,9.43
2022-12-28T01:33:57.286Z,8.43
2022-12-28T01:36:27.723Z,8.87
2022-12-28T01:38:56.324Z,8.97
2022-12-28T01:41:24.339Z,8.37
2022-12-28T01:44:07.220Z,9.13
2022-12-28T01:46:39.441Z,8.77
2022-12-28T01:49:08.916Z,9.20
2022-12-28T01:51:43.310Z,8.37
2022-12-28T01:54:11.017Z,9.60
2022-12-28T01:56:38.880Z,9.23
2022-12-28T01:59:06.646Z,9.77
2022-12-28T02:01:34.457Z,9.17
2022-12-28T02:04:03.587Z,8.60
2022-12-28T02:06:31.414Z,8.47
2022-12-28T02:09:01.260Z,8.73
2022-12-28T02:11:28.832Z,8.60
2022-12-28T02:13:57.128Z,8.20
2022-12-28T02:16:24.645Z,8.33
2022-12-28T02:18:53.192Z,7.50
2022-12-28T02:21:30.061Z,7.50
2022-12-28T02:24:15.491Z,7.33
2022-12-28T02:26:51.688Z,8.73
2022-12-28T02:29:35.598Z,8.17
2022-12-28T02:32:07.143Z,7.80
2022-12-28T02:34:38.154Z,7.63
2022-12-28T02:37:10.835Z,7.73
2022-12-28T02:39:40.972Z,7.17
2022-12-28T02:42:09.786Z,7.50
2022-12-28T02:44:56.601Z,8.43
2022-12-28T02:47:42.200Z,7.37
2022-12-28T02:50:11.469Z,6.53
2022-12-28T02:52:54.146Z,7.40
2022-12-28T02:55:45.374Z,7.60
2022-12-28T02:58:21.816Z,8.43
2022-12-28T03:00:59.320Z,7.13
2022-12-28T03:03:31.709Z,7.10
2022-12-28T03:06:25.545Z,6.70
2022-12-28T03:08:57.393Z,7.37
2022-12-28T03:11:28.893Z,7.03
2022-12-28T03:13:59.880Z,7.80
2022-12-28T03:16:30.513Z,6.90
2022-12-28T03:19:18.915Z,6.27
2022-12-28T03:22:04.707Z,6.97
2022-12-28T03:24:50.677Z,6.50
2022-12-28T03:27:36.340Z,7.17
2022-12-28T03:30:25.454Z,6.93
2022-12-28T03:32:54.542Z,6.70
2022-12-28T03:35:24.424Z,7.30
2022-12-28T03:37:54.694Z,6.33
2022-12-28T03:40:26.375Z,6.70
2022-12-28T03:43:14.034Z,6.43
2022-12-28T03:45:46.312Z,6.87
2022-12-28T03:48:17.017Z,6.57
2022-12-28T03:50:46.536Z,7.23
2022-12-28T03:53:14.315Z,6.97
2022-12-28T03:55:43.339Z,6.73
2022-12-28T03:58:11.363Z,6.83
2022-12-28T04:00:38.930Z,5.93
2022-12-28T04:03:06.773Z,6.97
2022-12-28T04:05:35.762Z,6.70
2022-12-28T04:08:03.292Z,6.70
2022-12-28T04:10:30.881Z,6.80
2022-12-28T04:12:58.404Z,6.33
2022-12-28T04:15:26.047Z,7.20
2022-12-28T04:17:53.621Z,6.63
2022-12-28T04:20:21.188Z,6.63
2022-12-28T04:22:50.225Z,6.97
2022-12-28T04:25:17.933Z,6.27
2022-12-28T04:27:45.398Z,5.47
2022-12-28T04:30:13.293Z,7.00
2022-12-28T04:32:40.888Z,5.90
2022-12-28T04:35:08.662Z,6.50
2022-12-28T04:37:37.435Z,6.60
2022-12-28T04:40:07.043Z,6.63
2022-12-28T04:42:34.571Z,6.53
2022-12-28T04:45:02.055Z,6.93
2022-12-28T04:47:29.747Z,6.90
2022-12-28T04:49:57.280Z,6.77
2022-12-28T04:52:24.807Z,6.57
2022-12-28T04:54:52.398Z,6.47
2022-12-28T04:57:21.395Z,6.50
2022-12-28T04:59:48.928Z,5.83
2022-12-28T05:02:16.617Z,6.33
2022-12-28T05:04:44.288Z,6.40
2022-12-28T05:07:11.984Z,5.60
2022-12-28T05:09:39.559Z,5.97
2022-12-28T05:12:07.220Z,6.23
2022-12-28T05:14:37.306Z,6.20
2022-12-28T05:17:04.997Z,5.97
2022-12-28T05:19:32.633Z,6.23
2022-12-28T05:22:00.159Z,5.90
2022-12-28T05:24:27.847Z,6.00
2022-12-28T05:26:55.436Z,6.27
2022-12-28T05:29:22.868Z,5.63
2022-12-28T05:31:51.925Z,6.13
2022-12-28T05:34:19.485Z,5.60
2022-12-28T05:36:47.076Z,6.57
2022-12-28T05:39:14.617Z,6.43
2022-12-28T05:41:42.634Z,6.50
2022-12-28T05:44:10.149Z,5.90
2022-12-28T05:46:37.727Z,5.70
2022-12-28T05:49:08.654Z,6.17
2022-12-28T05:51:36.262Z,5.60
2022-12-28T05:54:04.940Z,5.83
2022-12-28T05:56:33.299Z,5.80
2022-12-28T05:59:01.933Z,6.53
2022-12-28T06:01:30.597Z,5.73
2022-12-28T06:03:59.025Z,5.87
2022-12-28T06:06:28.029Z,6.43
2022-12-28T06:08:55.527Z,5.87
2022-12-28T06:11:24.033Z,5.80
2022-12-28T06:13:51.898Z,5.70
2022-12-28T06:16:20.332Z,6.63
2022-12-28T06:18:47.914Z,6.37
2022-12-28T06:21:16.310Z,5.93
2022-12-28T06:23:45.611Z,5.90
2022-12-28T06:26:14.126Z,5.93
2022-12-28T06:28:42.332Z,5.67
2022-12-28T06:31:12.041Z,6.57
2022-12-28T06:33:39.962Z,6.57
2022-12-28T06:36:17.745Z,7.43
2022-12-28T06:38:48.935Z,8.03
2022-12-28T06:41:17.145Z,8.17
2022-12-28T06:43:45.092Z,7.87
2022-12-28T06:46:13.260Z,7.90
2022-12-28T06:48:41.263Z,7.23
2022-12-28T06:51:09.588Z,7.63
2022-12-28T06:53:37.997Z,6.70
2022-12-28T06:56:08.415Z,7.70
2022-12-28T06:58:35.920Z,6.27
2022-12-28T07:01:07.597Z,6.17
2022-12-28T07:03:35.340Z,5.70
2022-12-28T07:06:03.281Z,6.90
2022-12-28T07:08:31.282Z,6.17
2022-12-28T07:11:03.128Z,5.80
2022-12-28T07:13:32.136Z,6.10
2022-12-28T07:16:02.665Z,6.17
2022-12-28T07:18:30.259Z,6.43
2022-12-28T07:21:01.729Z,6.20
2022-12-28T07:23:31.443Z,6.00
2022-12-28T07:25:59.570Z,5.73
2022-12-28T07:28:27.109Z,5.93
2022-12-28T07:30:56.036Z,5.70
2022-12-28T07:33:23.753Z,5.80
2022-12-28T07:35:51.388Z,5.57
2022-12-28T07:38:21.535Z,5.87
2022-12-28T07:40:49.512Z,6.80
2022-12-28T07:43:17.100Z,6.00
2022-12-28T07:45:44.656Z,7.27
2022-12-28T07:48:13.602Z,6.37
2022-12-28T07:50:41.126Z,7.13
2022-12-28T07:53:08.624Z,5.93
2022-12-28T07:55:36.203Z,5.97
2022-12-28T07:58:03.782Z,5.90
2022-12-28T08:00:31.487Z,6.97
2022-12-28T08:02:58.965Z,6.60
2022-12-28T08:05:27.807Z,7.00
2022-12-28T08:07:59.829Z,7.30
2022-12-28T08:10:30.867Z,6.00
2022-12-28T08:12:59.951Z,5.60
2022-12-28T08:15:27.636Z,6.33
2022-12-28T08:17:55.417Z,5.90
2022-12-28T08:20:23.628Z,5.30
2022-12-28T08:22:52.757Z,5.93
2022-12-28T08:25:20.357Z,5.90
2022-12-28T08:27:47.967Z,5.70
2022-12-28T08:30:15.626Z,6.57
2022-12-28T08:32:43.155Z,7.63
2022-12-28T08:35:10.722Z,6.10
2022-12-28T08:37:38.211Z,6.37
2022-12-28T08:40:07.864Z,6.33
2022-12-28T08:42:35.553Z,7.57
2022-12-28T08:45:03.211Z,6.90
2022-12-28T08:47:30.794Z,7.27
2022-12-28T08:49:58.345Z,6.80
2022-12-28T08:52:25.968Z,7.97
2022-12-28T08:54:53.535Z,8.07
2022-12-28T08:57:22.633Z,7.13
2022-12-28T08:59:50.182Z,7.37
2022-12-28T09:02:17.845Z,9.87
2022-12-28T09:04:45.933Z,8.80
2022-12-28T09:07:13.702Z,6.87
2022-12-28T09:09:41.379Z,8.27
2022-12-28T09:12:09.214Z,8.50
2022-12-28T09:14:38.199Z,7.53
2022-12-28T09:17:05.721Z,6.67
2022-12-28T09:19:33.267Z,6.22
2022-12-28T09:22:00.770Z,5.40
2022-12-28T09:24:28.288Z,3.10
2022-12-28T09:26:55.861Z,2.97
2022-12-28T09:29:23.516Z,4.00
2022-12-28T09:31:52.728Z,3.88
2022-12-28T09:34:37.598Z,5.00
2022-12-28T09:37:05.928Z,6.35
2022-12-28T09:39:33.840Z,6.45
2022-12-28T09:42:03.453Z,7.75
2022-12-28T09:44:45.318Z,6.63
2022-12-28T09:47:17.549Z,6.90
2022-12-28T09:49:47.622Z,5.43
2022-12-28T09:52:25.602Z,6.10
2022-12-28T09:54:53.123Z,3.40
2022-12-28T09:57:21.034Z,2.70
2022-12-28T09:59:49.159Z,2.95
2022-12-28T10:02:19.885Z,2.38
2022-12-28T10:04:49.520Z,2.40
2022-12-28T10:07:17.360Z,2.03
2022-12-28T10:09:44.954Z,2.20
2022-12-28T10:12:15.072Z,2.20
2022-12-28T10:14:42.842Z,2.35
2022-12-28T10:17:12.183Z,2.17
2022-12-28T10:19:41.497Z,2.40
2022-12-28T10:22:12.593Z,2.63
2022-12-28T10:24:40.462Z,2.42
2022-12-28T10:27:08.928Z,2.10
2022-12-28T10:29:36.563Z,2.15
2022-12-28T10:32:06.196Z,2.00
2022-12-28T10:34:35.621Z,2.40
2022-12-28T10:37:14.680Z,2.25
2022-12-28T10:39:49.219Z,2.55
2022-12-28T10:42:21.481Z,3.00
2022-12-28T10:44:49.629Z,2.28
2022-12-28T10:47:18.159Z,1.80
2022-12-28T10:50:10.131Z,1.92
2022-12-28T10:52:38.547Z,2.17
2022-12-28T10:55:26.862Z,1.92
2022-12-28T11:03:22.107Z,2.15
2022-12-28T11:03:30.406Z,2.33
2022-12-28T11:06:11.748Z,1.70
2022-12-28T11:08:41.474Z,2.03
2022-12-28T11:11:17.557Z,2.08
2022-12-28T11:13:46.236Z,2.05
2022-12-28T11:16:14.559Z,2.03
2022-12-28T11:18:42.448Z,2.30
2022-12-28T11:21:11.365Z,2.10
2022-12-28T11:23:40.444Z,2.30
2022-12-28T11:26:11.488Z,2.60
2022-12-28T11:28:41.026Z,2.85
2022-12-28T11:31:09.287Z,3.08
2022-12-28T11:33:40.174Z,2.22
2022-12-28T11:36:14.225Z,2.50
2022-12-28T11:38:43.850Z,2.10
2022-12-28T11:41:12.132Z,2.00
2022-12-28T11:43:50.262Z,2.05
2022-12-28T11:46:35.543Z,2.38
2022-12-28T11:49:03.793Z,2.13
2022-12-28T11:51:32.017Z,2.40
2022-12-28T11:54:01.715Z,2.00
2022-12-28T11:56:49.352Z,1.92
2022-12-28T11:59:23.893Z,2.17
2022-12-28T12:01:52.279Z,1.75
2022-12-28T12:04:21.953Z,2.00
2022-12-28T12:07:08.627Z,2.13
2022-12-28T12:09:44.565Z,1.90
2022-12-28T12:12:30.912Z,2.15
2022-12-28T12:14:58.996Z,1.92
2022-12-28T12:17:28.707Z,1.83
2022-12-28T12:19:58.364Z,2.05
2022-12-28T12:22:26.952Z,2.03
2022-12-28T12:24:58.821Z,1.92
2022-12-28T12:27:32.949Z,1.95
2022-12-28T12:30:01.649Z,1.67
2022-12-28T12:32:33.404Z,1.90
2022-12-28T12:35:03.314Z,1.60
2022-12-28T12:37:38.437Z,2.05
2022-12-28T12:40:21.714Z,1.65
2022-12-28T12:42:57.059Z,2.20
2022-12-28T12:45:29.029Z,1.77
2022-12-28T12:48:11.326Z,1.70
2022-12-28T12:50:48.010Z,1.98
2022-12-28T12:53:24.026Z,1.75
2022-12-28T12:55:59.635Z,1.60
2022-12-28T12:58:29.018Z,1.58
2022-12-28T13:01:06.871Z,1.60
2022-12-28T13:03:37.696Z,1.85
2022-12-28T13:06:05.809Z,1.65
2022-12-28T13:08:36.585Z,1.70
2022-12-28T13:11:08.971Z,1.65
2022-12-28T13:13:37.270Z,2.08
2022-12-28T13:16:06.163Z,2.13
2022-12-28T13:18:44.565Z,1.70
2022-12-28T13:21:18.959Z,2.35
2022-12-28T13:23:46.486Z,1.80
2022-12-28T13:26:16.593Z,1.92
2022-12-28T13:28:48.639Z,1.58
2022-12-28T13:31:18.215Z,1.95
2022-12-28T13:33:54.485Z,2.60
2022-12-28T13:36:22.053Z,1.65
2022-12-28T13:39:00.355Z,1.70
2022-12-28T13:41:29.294Z,1.70
2022-12-28T13:44:18.995Z,1.85
2022-12-28T13:46:48.056Z,2.00
2022-12-28T13:49:15.552Z,2.10
2022-12-28T13:51:46.077Z,2.85
2022-12-28T13:54:17.489Z,1.90
2022-12-28T13:56:46.541Z,1.73
2022-12-28T13:59:15.149Z,1.80
2022-12-28T14:01:44.044Z,1.90
2022-12-28T14:04:51.105Z,1.73
2022-12-28T14:07:00.555Z,1.80
2022-12-28T14:09:28.676Z,2.03
2022-12-28T14:11:58.211Z,1.80
2022-12-28T14:14:25.990Z,2.05
2022-12-28T14:16:53.745Z,2.03
2022-12-28T14:19:21.377Z,2.20
2022-12-28T14:21:49.015Z,1.88
2022-12-28T14:24:17.126Z,2.10
2022-12-28T14:26:48.200Z,1.50
2022-12-28T14:29:20.889Z,1.63
2022-12-28T14:31:48.561Z,1.75
2022-12-28T14:34:23.958Z,2.00
2022-12-28T14:36:52.614Z,1.80
2022-12-28T14:39:24.145Z,1.80
2022-12-28T14:41:51.932Z,1.83
2022-12-28T14:44:24.392Z,3.08
2022-12-28T14:46:54.860Z,1.60
2022-12-28T14:49:34.147Z,1.83
2022-12-28T14:52:20.575Z,2.53
2022-12-28T14:54:48.677Z,1.75
2022-12-28T14:57:20.800Z,1.67
2022-12-28T14:59:52.886Z,1.75
2022-12-28T15:02:41.052Z,1.90
2022-12-28T15:05:23.632Z,2.08
2022-12-28T15:07:51.116Z,1.60
2022-12-28T15:10:18.639Z,1.77
2022-12-28T15:12:46.174Z,3.95
2022-12-28T15:15:15.130Z,3.30
2022-12-28T15:17:42.798Z,2.40
2022-12-28T15:20:10.414Z,8.23
2022-12-28T15:22:37.922Z,4.00
2022-12-28T15:25:05.939Z,4.65
2022-12-28T15:27:33.705Z,2.92
2022-12-28T15:30:05.858Z,2.60
2022-12-28T15:32:35.305Z,3.22
2022-12-28T15:35:02.989Z,2.00
2022-12-28T15:37:30.459Z,2.55
2022-12-28T15:39:57.966Z,2.67
2022-12-28T15:42:25.526Z,2.30
2022-12-28T15:44:53.976Z,6.38
2022-12-28T15:47:23.319Z,2.13
2022-12-28T15:49:52.268Z,2.55
2022-12-28T15:52:19.817Z,2.38
2022-12-28T15:54:47.611Z,2.65
2022-12-28T15:57:15.731Z,2.60
2022-12-28T15:59:43.395Z,3.60
2022-12-28T16:02:11.323Z,4.47
2022-12-28T16:04:39.100Z,1.90
2022-12-28T16:07:08.076Z,2.53
2022-12-28T16:09:35.587Z,3.65
2022-12-28T16:12:04.760Z,12.63
2022-12-28T16:14:32.482Z,7.65
2022-12-28T16:17:00.102Z,5.15
2022-12-28T16:19:27.773Z,7.25
2022-12-28T16:21:55.455Z,6.68
2022-12-28T16:24:24.325Z,5.03
2022-12-28T16:26:51.963Z,4.05
2022-12-28T16:29:19.635Z,4.20
2022-12-28T16:31:47.305Z,4.18
2022-12-28T16:34:15.726Z,3.17
2022-12-28T16:36:43.756Z,3.95
2022-12-28T16:39:14.137Z,4.25
2022-12-28T16:41:43.054Z,4.32
2022-12-28T16:44:13.850Z,4.90
2022-12-28T16:46:41.379Z,4.60
2022-12-28T16:49:10.936Z,2.60
2022-12-28T16:51:39.185Z,3.50
2022-12-28T16:54:07.329Z,4.30
2022-12-28T16:56:35.005Z,4.50
2022-12-28T16:59:04.023Z,6.15
2022-12-28T17:01:31.637Z,4.00
2022-12-28T17:04:05.543Z,2.80
2022-12-28T17:06:33.161Z,2.50
2022-12-28T17:09:01.755Z,2.95
2022-12-28T17:11:29.305Z,2.10
2022-12-28T17:14:00.161Z,17.00
2022-12-28T17:16:29.252Z,15.23
2022-12-28T17:18:56.810Z,6.28
2022-12-28T17:21:24.353Z,3.70
2022-12-28T17:23:51.932Z,3.63
2022-12-28T17:26:19.422Z,5.18
2022-12-28T17:28:47.053Z,5.57
2022-12-28T17:31:16.323Z,4.32
2022-12-28T17:33:47.008Z,4.40
2022-12-28T17:36:15.158Z,5.53
2022-12-28T17:38:42.958Z,7.25
2022-12-28T17:41:11.448Z,5.35
2022-12-28T17:43:39.003Z,4.30
2022-12-28T17:46:06.875Z,3.75
2022-12-28T17:48:34.577Z,3.97
2022-12-28T17:51:09.285Z,4.68
2022-12-28T17:53:39.096Z,6.25
2022-12-28T17:56:08.214Z,5.28
2022-12-28T17:58:35.789Z,4.45
2022-12-28T18:01:03.629Z,4.90
2022-12-28T18:03:33.891Z,4.55
2022-12-28T18:06:03.355Z,3.97
2022-12-28T18:08:30.987Z,11.05
2022-12-28T18:10:58.664Z,5.95
2022-12-28T18:13:26.186Z,6.65
2022-12-28T18:15:53.777Z,4.30
2022-12-28T18:18:21.289Z,5.18
2022-12-28T18:20:56.561Z,4.50
2022-12-28T18:23:25.502Z,4.25
2022-12-28T18:25:53.063Z,4.20
2022-12-28T18:28:20.926Z,3.80
2022-12-28T18:30:48.589Z,3.70
2022-12-28T18:33:16.150Z,3.20
2022-12-28T18:35:43.724Z,3.30
2022-12-28T18:38:11.293Z,3.10
2022-12-28T18:40:40.284Z,3.10
2022-12-28T18:43:07.827Z,3.22
2022-12-28T18:45:35.636Z,3.40
2022-12-28T18:48:03.160Z,3.92
2022-12-28T18:50:30.698Z,3.20
2022-12-28T18:52:58.192Z,3.55
2022-12-28T18:55:25.876Z,3.92
2022-12-28T18:57:54.819Z,3.22
2022-12-28T19:00:22.417Z,3.33
2022-12-28T19:02:51.764Z,3.67
2022-12-28T19:05:19.388Z,3.65
2022-12-28T19:07:49.422Z,3.50
2022-12-28T19:10:17.601Z,3.58
2022-12-28T19:12:45.230Z,3.10
2022-12-28T19:15:14.330Z,3.97
2022-12-28T19:17:41.864Z,3.53
2022-12-28T19:20:09.933Z,2.50
2022-12-28T19:22:37.475Z,2.90
2022-12-28T19:25:05.443Z,2.75
2022-12-28T19:27:35.857Z,2.00
2022-12-28T19:30:03.378Z,2.33
2022-12-28T19:32:32.266Z,2.70
2022-12-28T19:34:59.866Z,3.63
2022-12-28T19:37:27.553Z,2.85
2022-12-28T19:39:57.915Z,2.10
2022-12-28T19:42:25.683Z,2.80
2022-12-28T19:44:53.227Z,2.33
2022-12-28T19:47:20.809Z,2.92
2022-12-28T19:49:49.710Z,2.60
2022-12-28T19:52:17.243Z,2.63
2022-12-28T19:54:45.172Z,2.97
2022-12-28T19:57:12.775Z,2.53
2022-12-28T19:59:40.339Z,2.80
2022-12-28T20:02:07.957Z,2.80
2022-12-28T20:04:35.710Z,2.58
2022-12-28T20:07:04.796Z,2.35
2022-12-28T20:09:32.284Z,2.40
2022-12-28T20:11:59.778Z,2.33
2022-12-28T20:14:27.381Z,2.80
2022-12-28T20:16:54.903Z,2.70
2022-12-28T20:19:22.431Z,2.78
2022-12-28T20:21:50.421Z,3.67
2022-12-28T20:24:21.589Z,4.50
2022-12-28T20:26:49.169Z,2.78
2022-12-28T20:29:16.646Z,3.15
2022-12-28T20:31:44.549Z,3.60
2022-12-28T20:34:12.158Z,6.35
2022-12-28T20:36:39.682Z,7.65
2022-12-28T20:39:07.208Z,7.32
2022-12-28T20:41:53.556Z,8.32
2022-12-28T20:44:22.525Z,8.10
2022-12-28T20:46:50.113Z,9.07
2022-12-28T20:49:17.673Z,14.68
2022-12-28T20:51:46.722Z,8.57
2022-12-28T20:54:14.624Z,12.10
2022-12-28T20:56:45.800Z,10.20
2022-12-28T20:59:15.504Z,9.07
2022-12-28T21:01:43.237Z,8.63
2022-12-28T21:04:11.329Z,10.90
2022-12-28T21:06:38.888Z,13.23
2022-12-28T21:09:06.565Z,11.10
2022-12-28T21:11:34.256Z,10.67
2022-12-28T21:14:03.194Z,7.90
2022-12-28T21:16:30.723Z,8.43
2022-12-28T21:18:58.310Z,8.95
2022-12-28T21:21:25.868Z,9.80
2022-12-28T21:23:53.670Z,11.00
2022-12-28T21:26:22.121Z,10.43
2022-12-28T21:28:49.676Z,10.07
2022-12-28T21:31:18.641Z,11.20
2022-12-28T21:33:46.378Z,11.93
2022-12-28T21:36:14.948Z,12.23
2022-12-28T21:38:43.166Z,9.93
2022-12-28T21:41:12.067Z,10.87
2022-12-28T21:43:39.984Z,11.97
2022-12-28T21:46:08.909Z,10.37
2022-12-28T21:48:38.434Z,10.15
2022-12-28T21:51:06.486Z,15.00
2022-12-28T21:53:34.074Z,11.07
2022-12-28T21:56:01.762Z,11.83
2022-12-28T21:58:29.303Z,10.40
2022-12-28T22:01:17.508Z,9.90
2022-12-28T22:04:04.097Z,9.57
2022-12-28T22:06:31.635Z,11.27
2022-12-28T22:09:16.603Z,12.30
2022-12-28T22:12:01.631Z,10.60
2022-12-28T22:14:29.186Z,10.83
2022-12-28T22:16:56.795Z,9.43
2022-12-28T22:19:25.764Z,8.30
2022-12-28T22:21:53.251Z,9.73
2022-12-28T22:24:20.800Z,8.80
2022-12-28T22:26:48.384Z,8.03
2022-12-28T22:29:16.568Z,7.70
2022-12-28T22:31:44.267Z,7.63
2022-12-28T22:34:11.969Z,7.13
2022-12-28T22:36:40.864Z,7.43
2022-12-28T22:39:08.374Z,7.20
2022-12-28T22:41:35.912Z,7.23
2022-12-28T22:44:03.605Z,6.50
2022-12-28T22:46:31.208Z,6.80
2022-12-28T22:48:58.755Z,6.57
2022-12-28T22:51:26.279Z,6.73
2022-12-28T22:53:55.266Z,6.90
2022-12-28T22:56:22.839Z,7.30
2022-12-28T22:58:50.408Z,6.20
2022-12-28T23:01:20.083Z,6.60
2022-12-28T23:03:48.406Z,7.07
2022-12-28T23:06:16.946Z,7.17
2022-12-28T23:08:44.519Z,6.47
2022-12-28T23:11:28.156Z,6.00
2022-12-28T23:13:55.685Z,6.40
2022-12-28T23:16:22.216Z,6.47
2022-12-28T23:19:07.067Z,6.70
2022-12-28T23:21:52.035Z,5.97
2022-12-28T23:24:37.106Z,5.67
2022-12-28T23:27:26.114Z,6.10
2022-12-28T23:29:53.665Z,6.00
2022-12-28T23:32:21.147Z,5.60
2022-12-28T23:34:50.028Z,6.00
2022-12-28T23:37:17.579Z,6.07
2022-12-28T23:39:45.118Z,5.90
2022-12-28T23:42:14.095Z,5.20
2022-12-28T23:44:41.614Z,5.88
2022-12-28T23:47:09.128Z,5.17
2022-12-28T23:49:36.650Z,5.22
2022-12-28T23:52:04.219Z,5.05
2022-12-28T23:54:31.763Z,5.30
2022-12-28T23:56:59.281Z,4.65
2022-12-28T23:59:28.207Z,4.65
